Time;durP1;ratioP1;P1;durP2;ratioP2;P2;SDS_P1;SDS_P2;PMS_P1;PMS_P2;Temp;Humidity;BMP_temperature;BMP_pressure;BME280_temperature;BME280_humidity;BME280_pressure;Samples;Min_cycle;Max_cycle;Signal;HPM_P1;HPM_P2
2021/06/28 00:01:05;;;;;;;0.57;0.57;;;20.70;99.90;;;;;;4413163;32;20077;-75
2021/06/28 00:03:31;;;;;;;0.45;0.43;;;20.60;99.90;;;;;;4413605;32;20070;-76
2021/06/28 00:05:56;;;;;;;0.30;0.30;;;20.60;99.90;;;;;;4413550;32;20081;-75
2021/06/28 00:08:23;;;;;;;0.50;0.50;;;20.70;99.90;;;;;;4413506;32;20499;-76
2021/06/28 00:10:49;;;;;;;7.12;1.73;;;20.70;99.90;;;;;;4413040;32;20082;-76
2021/06/28 00:13:14;;;;;;;0.30;0.30;;;20.70;99.90;;;;;;4413642;32;20069;-76
2021/06/28 00:15:40;;;;;;;0.20;0.20;;;20.60;99.90;;;;;;4414079;32;20090;-76
2021/06/28 00:18:07;;;;;;;0.40;0.40;;;20.60;99.90;;;;;;4413869;32;20069;-76
2021/06/28 00:20:34;;;;;;;0.40;0.40;;;20.50;99.90;;;;;;4413557;32;20069;-76
2021/06/28 00:23:01;;;;;;;0.62;0.50;;;20.50;99.90;;;;;;4413586;32;20095;-76
2021/06/28 00:25:27;;;;;;;1.75;0.68;;;20.50;99.90;;;;;;4413302;32;20069;-76
2021/06/28 00:27:53;;;;;;;0.62;0.62;;;20.40;99.90;;;;;;4413638;32;20124;-76
2021/06/28 00:30:20;;;;;;;0.20;0.20;;;20.30;99.90;;;;;;4413016;32;20066;-75
2021/06/28 00:32:47;;;;;;;0.40;0.40;;;20.30;99.90;;;;;;4414407;32;20405;-75
2021/06/28 00:35:13;;;;;;;4.53;1.08;;;20.30;99.90;;;;;;4413764;32;20069;-76
2021/06/28 00:37:40;;;;;;;0.40;0.40;;;20.20;99.90;;;;;;4412279;32;20124;-76
2021/06/28 00:40:09;;;;;;;3.30;0.57;;;20.30;99.90;;;;;;4413605;32;20476;-76
2021/06/28 00:42:35;;;;;;;0.30;0.30;;;20.20;99.90;;;;;;4413718;32;20061;-76
2021/06/28 00:45:14;;;;;;;0.37;0.37;;;20.10;99.90;;;;;;4415906;32;20077;-76
2021/06/28 00:47:39;;;;;;;1.00;0.50;;;20.00;99.90;;;;;;4415585;32;20431;-76
2021/06/28 00:50:05;;;;;;;0.32;0.32;;;19.90;99.90;;;;;;4417012;32;20066;-77
2021/06/28 00:52:31;;;;;;;0.37;0.37;;;19.80;99.90;;;;;;4415542;32;20158;-76
2021/06/28 00:54:57;;;;;;;0.60;0.60;;;19.80;99.90;;;;;;4416273;32;20428;-77
2021/06/28 00:57:23;;;;;;;0.30;0.30;;;19.90;99.90;;;;;;4415286;32;20566;-76
2021/06/28 00:59:49;;;;;;;0.80;0.57;;;19.90;99.90;;;;;;4415443;32;20069;-76
2021/06/28 01:02:15;;;;;;;0.68;0.40;;;19.90;99.90;;;;;;4417124;32;20408;-76
2021/06/28 01:04:40;;;;;;;0.82;0.55;;;19.90;99.90;;;;;;4416537;32;20062;-76
2021/06/28 01:07:06;;;;;;;0.50;0.50;;;19.90;99.90;;;;;;4414832;32;20124;-76
2021/06/28 01:09:31;;;;;;;1.35;0.40;;;19.80;99.90;;;;;;4416254;32;20066;-76
2021/06/28 01:11:57;;;;;;;0.60;0.60;;;19.80;99.90;;;;;;4414567;32;20066;-76
2021/06/28 01:14:23;;;;;;;0.20;0.20;;;19.90;99.90;;;;;;4415487;32;20076;-76
2021/06/28 01:16:48;;;;;;;0.88;0.50;;;19.90;99.90;;;;;;4415569;32;20089;-76
2021/06/28 01:19:15;;;;;;;0.62;0.43;;;19.90;99.90;;;;;;4416609;32;20447;-76
2021/06/28 01:21:42;;;;;;;0.88;0.50;;;19.80;99.90;;;;;;4416344;32;20073;-76
2021/06/28 01:24:09;;;;;;;0.40;0.40;;;19.80;99.90;;;;;;4415515;32;20086;-75
2021/06/28 01:26:35;;;;;;;0.43;0.40;;;19.90;99.90;;;;;;4415815;32;20070;-76
2021/06/28 01:29:03;;;;;;;1.35;0.52;;;19.90;99.90;;;;;;4414968;32;20417;-76
2021/06/28 01:31:28;;;;;;;1.37;0.70;;;19.90;99.90;;;;;;4417130;32;20078;-76
2021/06/28 01:33:54;;;;;;;3.30;0.45;;;19.70;99.90;;;;;;4430174;32;20136;-76
2021/06/28 01:36:19;;;;;;;1.30;0.60;;;19.70;99.90;;;;;;4431146;32;20089;-76
2021/06/28 01:38:45;;;;;;;0.32;0.32;;;19.70;99.90;;;;;;4430222;32;20073;-76
2021/06/28 01:41:11;;;;;;;0.70;0.55;;;19.70;99.90;;;;;;4430085;32;20074;-76
2021/06/28 01:43:36;;;;;;;0.40;0.40;;;19.70;99.90;;;;;;4430476;32;20511;-76
2021/06/28 01:46:02;;;;;;;0.30;0.30;;;19.70;99.90;;;;;;4431160;32;20150;-76
2021/06/28 01:48:28;;;;;;;9.52;0.52;;;19.60;99.90;;;;;;4432057;32;20522;-76
2021/06/28 01:50:53;;;;;;;0.37;0.37;;;19.60;99.90;;;;;;4432062;32;20399;-76
2021/06/28 01:53:19;;;;;;;2.37;0.60;;;19.60;99.90;;;;;;4430512;32;20065;-76
2021/06/28 01:55:45;;;;;;;2.22;0.85;;;19.50;99.90;;;;;;4429686;32;20128;-76
2021/06/28 01:58:14;;;;;;;0.68;0.68;;;19.50;99.90;;;;;;4431443;32;20069;-77
2021/06/28 02:00:45;;;;;;;0.40;0.40;;;19.30;99.90;;;;;;4431225;32;20409;-77
2021/06/28 02:03:14;;;;;;;0.30;0.30;;;19.40;99.90;;;;;;4432072;32;20065;-76
2021/06/28 02:05:45;;;;;;;0.47;0.47;;;19.20;99.90;;;;;;4431902;32;20073;-75
2021/06/28 02:08:12;;;;;;;0.93;0.60;;;19.20;99.90;;;;;;4429865;32;20069;-75
2021/06/28 02:10:41;;;;;;;0.40;0.40;;;19.20;99.90;;;;;;4429868;32;20465;-76
2021/06/28 02:13:06;;;;;;;0.75;0.75;;;19.20;99.90;;;;;;4429988;32;20488;-76
2021/06/28 02:15:32;;;;;;;1.02;0.65;;;19.20;99.90;;;;;;4430413;32;20069;-75
2021/06/28 02:17:59;;;;;;;0.75;0.75;;;19.20;99.90;;;;;;4431663;32;20131;-76
2021/06/28 02:20:25;;;;;;;0.65;0.65;;;19.10;99.90;;;;;;4430051;32;20124;-75
2021/06/28 02:22:52;;;;;;;2.20;0.60;;;19.20;99.90;;;;;;4429956;32;20456;-75
2021/06/28 02:25:19;;;;;;;0.40;0.40;;;19.30;99.90;;;;;;4429779;32;20066;-75
2021/06/28 02:27:46;;;;;;;0.40;0.40;;;19.30;99.90;;;;;;4430255;32;20128;-76
2021/06/28 02:30:15;;;;;;;1.00;0.70;;;19.30;99.90;;;;;;4430890;32;20066;-76
2021/06/28 02:32:42;;;;;;;0.40;0.40;;;19.30;99.90;;;;;;4430416;32;20061;-76
2021/06/28 02:35:10;;;;;;;1.00;0.37;;;19.40;99.90;;;;;;4430490;32;20397;-76
2021/06/28 02:37:37;;;;;;;0.62;0.60;;;19.40;99.90;;;;;;4429792;32;20069;-76
2021/06/28 02:40:07;;;;;;;0.65;0.50;;;19.30;99.90;;;;;;4429620;32;20182;-76
2021/06/28 02:42:32;;;;;;;0.40;0.40;;;19.30;99.90;;;;;;4429738;32;20634;-76
2021/06/28 02:44:58;;;;;;;0.85;0.68;;;19.10;99.90;;;;;;4429710;32;20073;-77
2021/06/28 02:47:23;;;;;;;0.52;0.43;;;19.10;99.90;;;;;;4430467;32;20069;-76
2021/06/28 02:49:49;;;;;;;2.15;0.93;;;19.10;99.90;;;;;;4431286;32;20086;-75
2021/06/28 02:52:14;;;;;;;0.40;0.40;;;19.10;99.90;;;;;;4429751;32;20120;-75
2021/06/28 02:54:40;;;;;;;2.33;0.57;;;19.10;99.90;;;;;;4429867;32;20085;-76
2021/06/28 02:57:06;;;;;;;0.50;0.50;;;19.10;99.90;;;;;;4428938;32;20097;-75
2021/06/28 02:59:31;;;;;;;1.10;0.88;;;19.00;99.90;;;;;;4429350;32;20057;-76
2021/06/28 03:01:57;;;;;;;1.90;1.45;;;19.10;99.90;;;;;;4429903;32;20089;-76
2021/06/28 03:04:23;;;;;;;0.22;0.22;;;19.00;99.90;;;;;;4429460;32;20408;-76
2021/06/28 03:06:48;;;;;;;0.40;0.40;;;19.00;99.90;;;;;;4428957;32;20119;-76
2021/06/28 03:09:14;;;;;;;24.17;0.75;;;19.10;99.90;;;;;;4430147;32;20073;-75
2021/06/28 03:11:39;;;;;;;0.30;0.30;;;19.00;99.90;;;;;;4428561;32;20526;-76
2021/06/28 03:14:06;;;;;;;0.50;0.50;;;19.00;99.90;;;;;;4429728;32;20089;-76
2021/06/28 03:16:31;;;;;;;0.57;0.57;;;19.00;99.90;;;;;;4429631;32;20061;-76
2021/06/28 03:18:57;;;;;;;0.75;0.60;;;19.10;99.90;;;;;;4429565;32;20533;-76
2021/06/28 03:21:23;;;;;;;0.30;0.30;;;19.10;99.90;;;;;;4430130;32;20089;-76
2021/06/28 03:23:49;;;;;;;0.37;0.37;;;19.10;99.90;;;;;;4429535;32;20112;-76
2021/06/28 03:26:14;;;;;;;1.20;0.82;;;19.10;99.90;;;;;;4429114;32;20069;-76
2021/06/28 03:28:40;;;;;;;0.20;0.20;;;19.00;99.90;;;;;;4429538;32;20539;-76
2021/06/28 03:31:06;;;;;;;1.00;0.60;;;19.00;99.90;;;;;;4429976;32;20123;-76
2021/06/28 03:33:34;;;;;;;0.43;0.43;;;18.90;99.90;;;;;;4414929;32;20112;-76
2021/06/28 03:35:59;;;;;;;0.68;0.68;;;18.90;99.90;;;;;;4413880;32;20510;-76
2021/06/28 03:38:25;;;;;;;0.45;0.45;;;18.90;99.90;;;;;;4413037;32;20117;-76
2021/06/28 03:40:50;;;;;;;6.25;0.70;;;19.00;99.90;;;;;;4414256;32;20086;-76
2021/06/28 03:43:16;;;;;;;2.03;0.70;;;19.00;99.90;;;;;;4413812;32;20124;-76
2021/06/28 03:45:41;;;;;;;0.50;0.47;;;19.00;99.90;;;;;;4413610;32;20420;-76
2021/06/28 03:48:08;;;;;;;0.45;0.45;;;19.10;99.90;;;;;;4414861;32;20135;-76
2021/06/28 03:50:35;;;;;;;1.27;0.70;;;19.10;99.90;;;;;;4414255;32;20102;-76
2021/06/28 03:53:01;;;;;;;0.35;0.35;;;19.10;99.90;;;;;;4413387;32;20081;-76
2021/06/28 03:55:26;;;;;;;0.47;0.47;;;19.20;99.90;;;;;;4413530;32;20455;-76
2021/06/28 03:57:52;;;;;;;0.40;0.40;;;19.20;99.90;;;;;;4413719;32;20065;-76
2021/06/28 04:00:21;;;;;;;4.57;1.23;;;19.20;99.90;;;;;;4413691;32;20086;-76
2021/06/28 04:02:47;;;;;;;0.95;0.73;;;19.30;99.90;;;;;;4414036;32;20069;-76
2021/06/28 04:05:17;;;;;;;0.45;0.45;;;19.40;99.90;;;;;;4413963;32;20092;-76
2021/06/28 04:07:43;;;;;;;1.40;0.70;;;19.40;99.90;;;;;;4413352;32;20090;-76
2021/06/28 04:10:09;;;;;;;0.65;0.62;;;19.50;99.90;;;;;;4413542;32;20070;-75
2021/06/28 04:12:35;;;;;;;0.30;0.30;;;19.40;99.90;;;;;;4414793;32;20082;-76
2021/06/28 04:15:02;;;;;;;0.50;0.50;;;19.50;99.90;;;;;;4415050;32;20127;-76
2021/06/28 04:17:27;;;;;;;0.47;0.45;;;19.60;99.90;;;;;;4415842;32;20070;-76
2021/06/28 04:19:53;;;;;;;1.73;0.73;;;19.60;99.90;;;;;;4417059;32;20081;-76
2021/06/28 04:22:19;;;;;;;1.25;0.88;;;19.70;99.90;;;;;;4415882;32;20499;-76
2021/06/28 04:24:44;;;;;;;0.50;0.50;;;19.70;99.90;;;;;;4417427;32;20417;-77
2021/06/28 04:27:10;;;;;;;0.40;0.40;;;19.80;99.90;;;;;;4417069;32;20115;-76
2021/06/28 04:29:35;;;;;;;0.40;0.40;;;19.80;99.90;;;;;;4416131;32;20086;-76
2021/06/28 04:32:03;;;;;;;1.00;0.52;;;19.90;99.90;;;;;;4421362;32;20133;-76
2021/06/28 04:34:28;;;;;;;0.40;0.40;;;20.00;99.90;;;;;;4431582;32;20082;-76
2021/06/28 04:36:54;;;;;;;0.30;0.30;;;20.10;99.90;;;;;;4431017;32;20502;-76
2021/06/28 04:39:19;;;;;;;0.40;0.40;;;20.10;99.90;;;;;;4432215;32;20077;-76
2021/06/28 04:41:45;;;;;;;0.47;0.47;;;20.20;99.90;;;;;;4430481;32;20066;-76
2021/06/28 04:44:10;;;;;;;1.95;0.77;;;20.20;99.90;;;;;;4431478;32;20073;-76
2021/06/28 04:46:36;;;;;;;0.77;0.73;;;20.30;99.90;;;;;;4431180;32;20435;-76
2021/06/28 04:49:01;;;;;;;0.50;0.50;;;20.30;99.90;;;;;;4432613;32;20077;-75
2021/06/28 04:51:27;;;;;;;1.52;0.43;;;20.50;99.90;;;;;;4431943;32;20069;-76
2021/06/28 04:53:52;;;;;;;0.32;0.32;;;20.60;99.90;;;;;;4420281;32;20517;-77
2021/06/28 04:56:19;;;;;;;0.40;0.40;;;20.70;99.90;;;;;;4415149;32;20069;-76
2021/06/28 04:58:44;;;;;;;0.35;0.35;;;20.80;99.90;;;;;;4422588;32;20491;-76
2021/06/28 05:01:10;;;;;;;0.20;0.20;;;20.90;99.90;;;;;;4421850;32;20062;-77
2021/06/28 05:03:35;;;;;;;0.40;0.40;;;21.00;99.90;;;;;;4425731;32;20456;-77
2021/06/28 05:06:01;;;;;;;0.40;0.40;;;21.10;99.90;;;;;;4418390;32;20636;-76
2021/06/28 05:08:26;;;;;;;1.62;0.93;;;21.20;99.90;;;;;;4417415;32;20073;-76
2021/06/28 05:10:52;;;;;;;20.15;0.65;;;21.30;99.90;;;;;;4423244;32;20109;-76
2021/06/28 05:13:18;;;;;;;1.55;0.73;;;21.40;99.90;;;;;;4426989;32;20064;-76
2021/06/28 05:15:43;;;;;;;0.60;0.60;;;21.60;99.90;;;;;;4432372;32;20085;-76
2021/06/28 05:18:09;;;;;;;0.37;0.37;;;21.70;99.90;;;;;;4424289;32;20085;-76
2021/06/28 05:20:35;;;;;;;0.30;0.30;;;21.70;99.90;;;;;;4415973;32;20448;-76
2021/06/28 05:23:01;;;;;;;0.32;0.32;;;21.80;99.90;;;;;;4415527;32;20498;-76
2021/06/28 05:25:26;;;;;;;0.40;0.40;;;21.90;99.90;;;;;;4415126;32;20058;-75
2021/06/28 05:27:52;;;;;;;0.68;0.47;;;21.90;99.90;;;;;;4415588;32;20070;-76
2021/06/28 05:30:18;;;;;;;1.10;0.60;;;22.00;99.90;;;;;;4421117;32;20117;-76
2021/06/28 05:32:44;;;;;;;0.32;0.32;;;22.00;99.90;;;;;;4421452;32;20078;-76
2021/06/28 05:35:11;;;;;;;11.05;1.55;;;22.10;99.90;;;;;;4415650;32;20065;-76
2021/06/28 05:37:37;;;;;;;0.40;0.40;;;22.10;99.90;;;;;;4414960;32;20078;-76
2021/06/28 05:40:05;;;;;;;0.60;0.50;;;22.20;99.90;;;;;;4415915;32;20348;-76
2021/06/28 05:42:31;;;;;;;0.35;0.30;;;22.30;99.90;;;;;;4414976;32;20098;-76
2021/06/28 05:44:56;;;;;;;0.52;0.50;;;22.30;99.90;;;;;;4416169;32;20066;-76
2021/06/28 05:47:23;;;;;;;0.40;0.40;;;22.30;99.90;;;;;;4415100;32;20073;-76
2021/06/28 05:49:50;;;;;;;0.40;0.40;;;22.20;99.90;;;;;;4416770;32;20062;-76
2021/06/28 05:52:18;;;;;;;0.25;0.25;;;22.30;99.90;;;;;;4415152;32;20459;-77
2021/06/28 05:54:44;;;;;;;0.98;0.50;;;22.20;99.90;;;;;;4415350;32;20121;-76
2021/06/28 05:57:09;;;;;;;0.40;0.40;;;22.20;99.90;;;;;;4417143;32;20503;-76
2021/06/28 05:59:35;;;;;;;0.77;0.47;;;22.30;99.90;;;;;;4429861;32;20136;-76
2021/06/28 06:02:02;;;;;;;0.30;0.30;;;22.30;99.90;;;;;;4430826;32;20073;-76
2021/06/28 06:04:27;;;;;;;0.30;0.30;;;22.40;99.90;;;;;;4430474;32;20061;-76
2021/06/28 06:06:53;;;;;;;0.20;0.20;;;22.50;99.90;;;;;;4429240;32;20073;-76
2021/06/28 06:09:18;;;;;;;1.17;0.85;;;22.60;99.90;;;;;;4430000;32;20510;-76
2021/06/28 06:11:44;;;;;;;0.88;0.77;;;22.80;99.90;;;;;;4430096;32;20073;-76
2021/06/28 06:14:09;;;;;;;0.40;0.40;;;22.80;99.90;;;;;;4430098;32;20519;-76
2021/06/28 06:16:35;;;;;;;1.95;0.98;;;22.90;99.90;;;;;;4429973;32;20070;-76
2021/06/28 06:19:00;;;;;;;0.55;0.55;;;23.00;99.90;;;;;;4430240;32;20077;-76
2021/06/28 06:21:25;;;;;;;0.43;0.43;;;23.10;99.90;;;;;;4430218;32;20085;-76
2021/06/28 06:23:51;;;;;;;0.45;0.45;;;23.20;99.90;;;;;;4429580;32;20069;-76
2021/06/28 06:26:18;;;;;;;0.40;0.40;;;23.30;99.90;;;;;;4429548;32;20066;-76
2021/06/28 06:28:44;;;;;;;1.58;0.50;;;23.50;99.90;;;;;;4429474;32;20074;-76
2021/06/28 06:31:09;;;;;;;0.43;0.40;;;23.60;99.90;;;;;;4429579;32;20078;-76
2021/06/28 06:33:35;;;;;;;0.40;0.40;;;23.70;99.90;;;;;;4415175;32;20494;-76
2021/06/28 06:36:00;;;;;;;0.40;0.40;;;23.70;99.90;;;;;;4415878;32;20077;-76
2021/06/28 06:38:26;;;;;;;0.73;0.60;;;23.80;99.90;;;;;;4413963;32;20547;-76
2021/06/28 06:40:52;;;;;;;0.30;0.30;;;23.90;99.90;;;;;;4414194;32;20081;-76
2021/06/28 06:43:18;;;;;;;0.30;0.30;;;24.00;99.90;;;;;;4414419;32;20161;-76
2021/06/28 06:45:43;;;;;;;1.87;1.15;;;24.00;99.90;;;;;;4414447;32;20078;-76
2021/06/28 06:48:09;;;;;;;0.40;0.40;;;24.10;99.90;;;;;;4414616;32;20069;-76
2021/06/28 06:50:35;;;;;;;0.20;0.20;;;24.20;99.90;;;;;;4414248;32;20566;-76
2021/06/28 06:53:00;;;;;;;0.65;0.40;;;24.40;99.90;;;;;;4414478;32;20118;-76
2021/06/28 06:55:27;;;;;;;0.55;0.55;;;24.40;99.90;;;;;;4413683;32;20070;-75
2021/06/28 06:57:53;;;;;;;0.40;0.40;;;24.50;99.90;;;;;;4421014;32;20082;-75
2021/06/28 07:00:20;;;;;;;0.30;0.30;;;24.70;99.90;;;;;;4429018;32;20068;-75
2021/06/28 07:02:46;;;;;;;0.85;0.57;;;24.80;99.60;;;;;;4429620;32;20569;-75
2021/06/28 07:05:13;;;;;;;1.77;0.43;;;24.90;99.10;;;;;;4429743;32;20077;-75
2021/06/28 07:07:40;;;;;;;1.35;1.17;;;24.90;99.30;;;;;;4428024;32;20065;-76
2021/06/28 07:10:08;;;;;;;0.40;0.40;;;25.00;99.10;;;;;;4429886;32;20536;-76
2021/06/28 07:12:34;;;;;;;0.20;0.20;;;25.00;99.10;;;;;;4429789;32;20466;-76
2021/06/28 07:14:59;;;;;;;0.75;0.45;;;25.10;99.20;;;;;;4429253;32;20081;-76
2021/06/28 07:17:25;;;;;;;3.53;0.55;;;25.10;99.00;;;;;;4430096;32;20070;-76
2021/06/28 07:19:50;;;;;;;0.30;0.30;;;25.10;98.30;;;;;;4430911;32;20498;-76
2021/06/28 07:22:16;;;;;;;0.30;0.30;;;25.30;98.70;;;;;;4429089;32;20061;-76
2021/06/28 07:24:42;;;;;;;0.40;0.40;;;25.30;98.30;;;;;;4429795;32;20082;-76
2021/06/28 07:27:07;;;;;;;0.75;0.62;;;25.30;97.90;;;;;;4429405;32;20425;-76
2021/06/28 07:29:33;;;;;;;0.55;0.45;;;25.40;98.10;;;;;;4429648;32;20152;-76
2021/06/28 07:31:59;;;;;;;2.40;1.58;;;25.50;98.10;;;;;;4425956;32;20534;-76
2021/06/28 07:34:24;;;;;;;0.35;0.35;;;25.50;97.40;;;;;;4414292;32;20086;-76
2021/06/28 07:36:50;;;;;;;0.47;0.47;;;25.60;97.10;;;;;;4413713;32;20066;-76
2021/06/28 07:39:15;;;;;;;1.30;0.50;;;25.80;96.30;;;;;;4414386;32;20070;-76
2021/06/28 07:41:41;;;;;;;0.82;0.82;;;25.90;96.30;;;;;;4413507;32;20078;-76
2021/06/28 07:44:08;;;;;;;2.17;0.68;;;26.00;95.40;;;;;;4413873;32;20507;-76
2021/06/28 07:46:34;;;;;;;0.22;0.22;;;26.00;95.30;;;;;;4413670;32;20069;-76
2021/06/28 07:49:00;;;;;;;0.57;0.30;;;26.20;93.70;;;;;;4415543;32;20069;-76
2021/06/28 07:51:26;;;;;;;0.95;0.47;;;26.40;93.90;;;;;;4413754;32;20482;-76
2021/06/28 07:53:51;;;;;;;0.45;0.45;;;26.50;93.90;;;;;;4413435;32;20083;-76
2021/06/28 07:56:17;;;;;;;0.35;0.30;;;26.70;94.00;;;;;;4412787;32;20065;-76
2021/06/28 07:58:45;;;;;;;0.37;0.37;;;26.80;93.30;;;;;;4425814;32;20463;-76
2021/06/28 08:01:11;;;;;;;0.47;0.40;;;26.90;93.10;;;;;;4428795;32;20127;-76
2021/06/28 08:03:43;;;;;;;0.30;0.30;;;27.10;91.70;;;;;;4429832;32;20526;-76
2021/06/28 08:06:10;;;;;;;0.30;0.30;;;27.20;90.30;;;;;;4429014;32;20065;-76
2021/06/28 08:08:35;;;;;;;0.30;0.30;;;27.30;90.10;;;;;;4429090;32;20503;-77
2021/06/28 08:11:01;;;;;;;0.28;0.28;;;27.50;88.80;;;;;;4428362;32;20127;-76
2021/06/28 08:13:26;;;;;;;0.57;0.40;;;27.60;87.90;;;;;;4429524;32;20531;-76
2021/06/28 08:15:52;;;;;;;1.45;0.55;;;27.80;87.90;;;;;;4429123;32;20069;-76
2021/06/28 08:18:17;;;;;;;0.17;0.17;;;27.90;87.60;;;;;;4428574;32;20120;-76
2021/06/28 08:20:42;;;;;;;0.20;0.20;;;28.00;87.00;;;;;;4428971;32;20065;-76
2021/06/28 08:23:10;;;;;;;0.17;0.17;;;27.90;85.60;;;;;;4428675;32;20451;-77
2021/06/28 08:25:36;;;;;;;0.45;0.43;;;27.60;84.10;;;;;;4428104;32;20082;-76
2021/06/28 08:28:01;;;;;;;0.10;0.10;;;27.40;84.70;;;;;;4428933;32;20069;-77
2021/06/28 08:30:27;;;;;;;0.30;0.30;;;27.50;82.30;;;;;;4428862;32;20061;-77
2021/06/28 08:32:52;;;;;;;0.30;0.30;;;27.60;84.50;;;;;;4418996;32;20137;-76
2021/06/28 08:35:18;;;;;;;0.30;0.30;;;27.80;84.90;;;;;;4413690;32;20121;-76
2021/06/28 08:37:43;;;;;;;0.30;0.30;;;28.00;85.50;;;;;;4412955;32;20073;-76
2021/06/28 08:40:10;;;;;;;2.17;0.30;;;28.00;84.60;;;;;;4412723;32;20065;-76
2021/06/28 08:42:35;;;;;;;0.20;0.20;;;27.80;84.20;;;;;;4413321;32;20100;-76
2021/06/28 08:45:02;;;;;;;0.10;0.10;;;27.60;84.80;;;;;;4413474;32;20121;-76
2021/06/28 08:47:28;;;;;;;0.10;0.10;;;27.50;83.00;;;;;;4413076;32;20073;-76
2021/06/28 08:49:54;;;;;;;0.20;0.20;;;27.50;82.60;;;;;;4414122;32;20124;-76
2021/06/28 08:52:20;;;;;;;0.98;0.50;;;27.60;82.60;;;;;;4412907;32;20510;-77
2021/06/28 08:54:45;;;;;;;0.50;0.50;;;27.70;81.90;;;;;;4412921;32;20066;-77
2021/06/28 08:57:11;;;;;;;0.20;0.20;;;27.40;81.10;;;;;;4415523;32;20085;-76
2021/06/28 08:59:36;;;;;;;0.28;0.28;;;27.30;81.40;;;;;;4428033;32;20065;-76
2021/06/28 09:02:03;;;;;;;0.20;0.20;;;27.40;81.50;;;;;;4428657;32;20086;-76
2021/06/28 09:04:28;;;;;;;0.47;0.47;;;27.50;80.90;;;;;;4430712;32;20152;-76
2021/06/28 09:07:21;;;;;;;0.30;0.30;;;27.80;80.40;;;;;;4430582;32;20086;-76
2021/06/28 09:09:47;;;;;;;0.22;0.17;;;28.00;78.10;;;;;;4420977;32;20061;-76
2021/06/28 09:12:15;;;;;;;0.10;0.10;;;28.20;77.70;;;;;;4431798;32;20545;-76
2021/06/28 09:14:54;;;;;;;0.00;0.00;;;28.30;76.20;;;;;;4433332;32;20116;-76
2021/06/28 09:17:24;;;;;;;0.15;0.15;;;28.40;77.80;;;;;;4433425;32;20086;-75
2021/06/28 09:20:09;;;;;;;;;;;28.60;74.50;;;;;;4432018;32;20177;-76
2021/06/28 09:22:34;;;;;;;0.10;0.10;;;28.80;75.20;;;;;;4431273;32;20008;-75
2021/06/28 09:25:00;;;;;;;0.15;0.15;;;28.70;74.30;;;;;;4431116;32;20054;-75
2021/06/28 09:27:26;;;;;;;0.60;0.45;;;28.70;74.80;;;;;;4432237;32;20061;-75
2021/06/28 09:29:55;;;;;;;0.20;0.20;;;28.60;73.80;;;;;;4431825;32;20065;-75
2021/06/28 09:32:22;;;;;;;0.30;0.30;;;28.70;73.70;;;;;;4425440;32;20456;-76
2021/06/28 09:34:50;;;;;;;0.10;0.10;;;28.90;73.40;;;;;;4416690;32;20082;-76
2021/06/28 09:37:25;;;;;;;1.02;0.45;;;29.10;71.70;;;;;;4415685;32;20090;-76
2021/06/28 09:39:54;;;;;;;0.10;0.10;;;29.10;70.00;;;;;;4415321;32;92189;-76
2021/06/28 09:42:25;;;;;;;0.62;0.30;;;29.10;72.50;;;;;;4416710;32;20477;-77
2021/06/28 09:44:56;;;;;;;1.10;0.22;;;29.30;71.90;;;;;;4416240;32;20066;-75
2021/06/28 09:47:25;;;;;;;0.10;0.10;;;29.40;70.00;;;;;;4416209;32;20078;-75
2021/06/28 09:50:13;;;;;;;0.20;0.20;;;29.40;70.00;;;;;;4418390;32;20090;-75
2021/06/28 09:52:43;;;;;;;0.05;0.05;;;29.50;69.50;;;;;;4405308;32;20085;-75
2021/06/28 09:55:10;;;;;;;;;;;29.30;68.30;;;;;;4417115;32;20057;-75
2021/06/28 09:57:36;;;;;;;0.25;0.25;;;29.40;69.20;;;;;;4421288;32;19957;-75
2021/06/28 10:00:20;;;;;;;0.95;0.77;;;29.50;68.80;;;;;;4432608;32;20108;-75
2021/06/28 10:02:46;;;;;;;0.20;0.20;;;29.60;68.10;;;;;;4431936;32;20108;-75
2021/06/28 10:05:17;;;;;;;0.10;0.10;;;29.70;68.50;;;;;;4431958;32;20120;-75
2021/06/28 10:07:42;;;;;;;0.20;0.20;;;29.80;67.40;;;;;;4416505;32;20066;-75
2021/06/28 10:10:12;;;;;;;0.00;0.00;;;30.10;67.70;;;;;;4415608;32;20552;-75
2021/06/28 10:12:40;;;;;;;0.43;0.30;;;30.10;65.60;;;;;;4419567;32;20489;-75
2021/06/28 10:15:08;;;;;;;0.15;0.15;;;30.00;64.90;;;;;;4422883;32;20074;-75
2021/06/28 10:17:33;;;;;;;0.10;0.10;;;30.00;64.20;;;;;;4426031;32;20069;-75
2021/06/28 10:19:59;;;;;;;0.25;0.25;;;30.20;66.90;;;;;;4431827;32;20430;-76
2021/06/28 10:22:25;;;;;;;0.20;0.20;;;30.60;65.50;;;;;;4417789;32;20308;-76
2021/06/28 10:24:51;;;;;;;0.52;0.43;;;30.90;64.60;;;;;;4425880;32;20105;-76
2021/06/28 10:27:17;;;;;;;0.00;0.00;;;31.00;63.00;;;;;;4423925;32;20083;-76
2021/06/28 10:29:43;;;;;;;0.25;0.17;;;30.80;61.50;;;;;;4420332;32;20066;-76
2021/06/28 10:32:11;;;;;;;0.20;0.10;;;31.00;61.40;;;;;;4425244;32;20057;-76
2021/06/28 10:34:39;;;;;;;0.10;0.10;;;30.90;61.70;;;;;;4420270;32;20057;-76
2021/06/28 10:37:46;;;;;;;0.50;0.50;;;30.80;61.70;;;;;;4416959;32;20061;-76
2021/06/28 10:40:21;;;;;;;0.10;0.10;;;31.00;62.70;;;;;;4409507;32;20510;-76
2021/06/28 10:42:53;;;;;;;0.45;0.30;;;31.10;60.20;;;;;;4430691;32;20490;-76
2021/06/28 10:45:41;;;;;;;0.20;0.20;;;30.80;61.60;;;;;;4431098;32;20471;-76
2021/06/28 10:48:16;;;;;;;1.55;0.77;;;30.70;61.40;;;;;;4408098;32;20066;-76
2021/06/28 10:51:05;;;;;;;0.25;0.25;;;30.70;59.80;;;;;;4416863;32;20408;-76
2021/06/28 10:53:36;;;;;;;0.20;0.20;;;30.40;60.50;;;;;;4404087;32;20062;-76
2021/06/28 10:56:36;;;;;;;0.55;0.30;;;30.30;59.80;;;;;;4427593;32;20061;-76
2021/06/28 10:59:15;;;;;;;0.10;0.10;;;30.20;59.40;;;;;;4404721;32;20087;-76
2021/06/28 11:01:44;;;;;;;0.35;0.20;;;30.10;58.00;;;;;;4415610;32;20075;-76
2021/06/28 11:04:14;;;;;;;0.05;0.05;;;30.10;59.50;;;;;;4416137;32;20061;-75
2021/06/28 11:07:02;;;;;;;0.10;0.10;;;30.00;60.80;;;;;;4414685;32;20061;-75
2021/06/28 11:09:56;;;;;;;2.17;0.98;;;29.90;60.30;;;;;;4404058;32;20494;-75
2021/06/28 11:12:25;;;;;;;15.55;1.37;;;29.90;59.40;;;;;;4404366;32;20090;-75
2021/06/28 11:15:01;;;;;;;0.10;0.10;;;29.60;59.40;;;;;;4414324;32;20062;-75
2021/06/28 11:17:55;;;;;;;0.15;0.15;;;29.60;59.80;;;;;;4414290;32;20211;-75
2021/06/28 11:20:38;;;;;;;0.88;0.50;;;29.70;61.30;;;;;;4404192;32;20117;-75
2021/06/28 11:23:07;;;;;;;0.20;0.20;;;29.60;60.40;;;;;;4414338;32;20058;-75
2021/06/28 11:25:54;;;;;;;0.08;0.08;;;29.70;62.00;;;;;;4413478;32;20050;-75
2021/06/28 11:28:38;;;;;;;0.00;0.00;;;29.80;60.00;;;;;;4402645;32;20452;-75
2021/06/28 11:31:13;;;;;;;0.20;0.20;;;30.00;61.30;;;;;;4413871;32;20046;-75
2021/06/28 11:33:43;;;;;;;0.20;0.20;;;30.10;58.60;;;;;;4429111;32;20413;-75
2021/06/28 11:36:32;;;;;;;0.28;0.20;;;30.20;58.50;;;;;;4429989;32;20086;-75
2021/06/28 11:39:00;;;;;;;2.08;0.40;;;30.30;58.60;;;;;;4419192;32;20057;-75
2021/06/28 11:41:28;;;;;;;0.20;0.20;;;30.40;57.60;;;;;;4428747;32;20082;-76
2021/06/28 11:43:57;;;;;;;0.10;0.10;;;30.50;58.30;;;;;;4429461;32;20057;-76
2021/06/28 11:46:46;;;;;;;0.20;0.20;;;30.40;58.30;;;;;;4429183;32;20389;-76
2021/06/28 11:49:21;;;;;;;0.40;0.30;;;30.50;58.60;;;;;;4414716;32;20607;-77
2021/06/28 11:51:48;;;;;;;0.20;0.20;;;30.70;59.30;;;;;;4413781;32;20049;-77
2021/06/28 11:54:17;;;;;;;0.10;0.10;;;30.80;58.20;;;;;;4416163;32;20540;-75
2021/06/28 11:56:46;;;;;;;0.00;0.00;;;30.90;57.30;;;;;;4428378;32;20069;-75
2021/06/28 11:59:17;;;;;;;0.03;0.03;;;31.10;56.90;;;;;;4413556;32;20062;-76
2021/06/28 12:01:53;;;;;;;0.90;0.20;;;31.10;56.70;;;;;;4414565;32;20062;-75
2021/06/28 12:04:21;;;;;;;0.17;0.17;;;30.90;55.80;;;;;;4414848;32;20061;-77
2021/06/28 12:06:48;;;;;;;0.90;0.30;;;30.80;56.60;;;;;;4414297;32;20065;-75
2021/06/28 12:09:17;;;;;;;0.10;0.10;;;30.90;55.60;;;;;;4414329;32;20140;-76
2021/06/28 12:12:10;;;;;;;0.03;0.03;;;31.00;55.60;;;;;;4415104;32;20061;-76
2021/06/28 12:14:39;;;;;;;0.13;0.13;;;31.10;55.80;;;;;;4415166;32;20066;-76
2021/06/28 12:17:12;;;;;;;0.10;0.10;;;30.80;54.20;;;;;;4413225;32;20129;-76
2021/06/28 12:19:40;;;;;;;0.20;0.20;;;30.90;56.20;;;;;;4414238;32;20065;-76
2021/06/28 12:22:09;;;;;;;0.13;0.13;;;31.50;56.10;;;;;;4413311;32;20122;-76
2021/06/28 12:24:34;;;;;;;0.47;0.45;;;31.80;56.20;;;;;;4413652;32;20078;-76
2021/06/28 12:27:06;;;;;;;0.17;0.17;;;32.20;55.30;;;;;;4413361;32;20074;-76
2021/06/28 12:29:40;;;;;;;0.28;0.08;;;32.70;55.40;;;;;;4413903;32;20510;-76
2021/06/28 12:32:27;;;;;;;0.30;0.30;;;33.00;54.00;;;;;;4414503;32;20057;-77
2021/06/28 12:34:59;;;;;;;0.30;0.30;;;33.50;53.60;;;;;;4415430;32;20070;-76
2021/06/28 12:37:28;;;;;;;1.17;0.40;;;33.80;51.20;;;;;;4401236;32;20074;-76
2021/06/28 12:40:09;;;;;;;0.20;0.15;;;34.20;50.90;;;;;;4417390;32;20061;-76
2021/06/28 12:42:39;;;;;;;0.20;0.20;;;34.80;51.40;;;;;;4416488;32;20073;-75
2021/06/28 12:45:05;;;;;;;0.10;0.10;;;35.20;49.60;;;;;;4417382;32;20085;-75
2021/06/28 12:47:31;;;;;;;0.25;0.25;;;34.40;49.70;;;;;;4417280;32;20170;-76
2021/06/28 12:49:58;;;;;;;0.30;0.30;;;33.80;50.00;;;;;;4417757;32;20079;-76
2021/06/28 12:52:34;;;;;;;0.20;0.20;;;33.80;50.50;;;;;;4416200;32;20492;-76